sensor_id;sensor_type;location;lat;lon;timestamp;P1;durP1;ratioP1;P2;durP2;ratioP2
25846;SDS011;13676;50.168;8.568;2023-02-15T00:01:24;83.00;;;40.97;;
25846;SDS011;13676;50.168;8.568;2023-02-15T00:03:50;68.50;;;37.65;;
25846;SDS011;13676;50.168;8.568;2023-02-15T00:06:15;67.80;;;32.00;;
25846;SDS011;13676;50.168;8.568;2023-02-15T00:08:41;56.83;;;30.33;;
25846;SDS011;13676;50.168;8.568;2023-02-15T00:11:10;62.53;;;31.67;;
25846;SDS011;13676;50.168;8.568;2023-02-15T00:13:37;48.35;;;25.58;;
25846;SDS011;13676;50.168;8.568;2023-02-15T00:16:06;68.25;;;36.30;;
25846;SDS011;13676;50.168;8.568;2023-02-15T00:18:33;67.65;;;33.00;;
25846;SDS011;13676;50.168;8.568;2023-02-15T00:21:02;56.78;;;31.95;;
25846;SDS011;13676;50.168;8.568;2023-02-15T00:23:28;56.70;;;28.33;;
25846;SDS011;13676;50.168;8.568;2023-02-15T00:26:07;56.80;;;28.80;;
25846;SDS011;13676;50.168;8.568;2023-02-15T00:28:33;61.75;;;30.80;;
25846;SDS011;13676;50.168;8.568;2023-02-15T00:31:03;64.50;;;31.77;;
25846;SDS011;13676;50.168;8.568;2023-02-15T00:33:28;59.40;;;29.65;;
25846;SDS011;13676;50.168;8.568;2023-02-15T00:35:57;58.80;;;31.52;;
25846;SDS011;13676;50.168;8.568;2023-02-15T00:38:23;53.92;;;29.02;;
25846;SDS011;13676;50.168;8.568;2023-02-15T00:40:55;53.42;;;29.10;;
25846;SDS011;13676;50.168;8.568;2023-02-15T00:43:21;54.28;;;30.25;;
25846;SDS011;13676;50.168;8.568;2023-02-15T00:45:46;58.80;;;28.80;;
25846;SDS011;13676;50.168;8.568;2023-02-15T00:48:12;54.53;;;29.30;;
25846;SDS011;13676;50.168;8.568;2023-02-15T00:50:37;54.47;;;29.13;;
25846;SDS011;13676;50.168;8.568;2023-02-15T00:53:03;59.95;;;29.08;;
25846;SDS011;13676;50.168;8.568;2023-02-15T00:55:28;54.70;;;27.83;;
25846;SDS011;13676;50.168;8.568;2023-02-15T00:57:53;58.75;;;30.88;;
25846;SDS011;13676;50.168;8.568;2023-02-15T01:00:19;57.60;;;31.15;;
25846;SDS011;13676;50.168;8.568;2023-02-15T01:02:44;55.25;;;30.02;;
25846;SDS011;13676;50.168;8.568;2023-02-15T01:05:10;69.75;;;37.33;;
25846;SDS011;13676;50.168;8.568;2023-02-15T01:07:35;65.47;;;33.10;;
25846;SDS011;13676;50.168;8.568;2023-02-15T01:10:00;56.95;;;30.73;;
25846;SDS011;13676;50.168;8.568;2023-02-15T01:12:26;49.42;;;27.70;;
25846;SDS011;13676;50.168;8.568;2023-02-15T01:14:51;90.75;;;37.15;;
25846;SDS011;13676;50.168;8.568;2023-02-15T01:17:17;61.70;;;33.88;;
25846;SDS011;13676;50.168;8.568;2023-02-15T01:19:42;72.20;;;36.03;;
25846;SDS011;13676;50.168;8.568;2023-02-15T01:22:07;63.30;;;32.15;;
25846;SDS011;13676;50.168;8.568;2023-02-15T01:24:33;56.70;;;30.85;;
25846;SDS011;13676;50.168;8.568;2023-02-15T01:26:58;73.15;;;36.45;;
25846;SDS011;13676;50.168;8.568;2023-02-15T01:29:23;83.20;;;41.03;;
25846;SDS011;13676;50.168;8.568;2023-02-15T01:31:49;67.07;;;38.15;;
25846;SDS011;13676;50.168;8.568;2023-02-15T01:34:14;64.22;;;35.42;;
25846;SDS011;13676;50.168;8.568;2023-02-15T01:36:39;62.67;;;37.92;;
25846;SDS011;13676;50.168;8.568;2023-02-15T01:39:05;62.00;;;34.42;;
25846;SDS011;13676;50.168;8.568;2023-02-15T01:41:31;67.28;;;35.78;;
25846;SDS011;13676;50.168;8.568;2023-02-15T01:43:59;54.00;;;29.90;;
25846;SDS011;13676;50.168;8.568;2023-02-15T01:49:01;63.25;;;34.58;;
25846;SDS011;13676;50.168;8.568;2023-02-15T01:51:29;60.70;;;32.58;;
25846;SDS011;13676;50.168;8.568;2023-02-15T01:54:29;54.60;;;30.35;;
25846;SDS011;13676;50.168;8.568;2023-02-15T01:56:49;65.55;;;34.33;;
25846;SDS011;13676;50.168;8.568;2023-02-15T01:59:16;52.25;;;30.48;;
25846;SDS011;13676;50.168;8.568;2023-02-15T02:01:44;49.58;;;28.40;;
25846;SDS011;13676;50.168;8.568;2023-02-15T02:06:36;47.30;;;28.77;;
25846;SDS011;13676;50.168;8.568;2023-02-15T02:09:03;63.93;;;34.60;;
25846;SDS011;13676;50.168;8.568;2023-02-15T02:11:28;54.72;;;32.83;;
25846;SDS011;13676;50.168;8.568;2023-02-15T02:13:54;59.63;;;34.25;;
25846;SDS011;13676;50.168;8.568;2023-02-15T02:41:44;51.25;;;30.20;;
25846;SDS011;13676;50.168;8.568;2023-02-15T02:44:19;47.15;;;28.08;;
25846;SDS011;13676;50.168;8.568;2023-02-15T02:46:49;46.47;;;27.63;;
25846;SDS011;13676;50.168;8.568;2023-02-15T02:49:20;45.83;;;27.77;;
25846;SDS011;13676;50.168;8.568;2023-02-15T02:51:58;58.65;;;34.35;;
25846;SDS011;13676;50.168;8.568;2023-02-15T02:54:24;52.00;;;30.25;;
25846;SDS011;13676;50.168;8.568;2023-02-15T02:56:49;54.47;;;30.25;;
25846;SDS011;13676;50.168;8.568;2023-02-15T02:59:19;56.58;;;31.23;;
25846;SDS011;13676;50.168;8.568;2023-02-15T03:01:51;50.80;;;28.35;;
25846;SDS011;13676;50.168;8.568;2023-02-15T03:04:22;74.90;;;39.00;;
25846;SDS011;13676;50.168;8.568;2023-02-15T03:06:57;63.10;;;34.40;;
25846;SDS011;13676;50.168;8.568;2023-02-15T03:09:25;64.40;;;35.75;;
25846;SDS011;13676;50.168;8.568;2023-02-15T03:12:07;63.97;;;34.97;;
25846;SDS011;13676;50.168;8.568;2023-02-15T03:14:34;70.93;;;37.63;;
25846;SDS011;13676;50.168;8.568;2023-02-15T03:17:00;67.45;;;36.03;;
25846;SDS011;13676;50.168;8.568;2023-02-15T03:19:29;63.50;;;34.95;;
25846;SDS011;13676;50.168;8.568;2023-02-15T03:21:58;61.50;;;33.55;;
25846;SDS011;13676;50.168;8.568;2023-02-15T03:27:25;60.70;;;31.95;;
25846;SDS011;13676;50.168;8.568;2023-02-15T03:29:56;54.08;;;29.55;;
25846;SDS011;13676;50.168;8.568;2023-02-15T03:32:23;55.28;;;31.80;;
25846;SDS011;13676;50.168;8.568;2023-02-15T03:34:50;53.83;;;29.75;;
25846;SDS011;13676;50.168;8.568;2023-02-15T03:37:20;62.90;;;33.72;;
25846;SDS011;13676;50.168;8.568;2023-02-15T03:43:04;62.33;;;32.05;;
25846;SDS011;13676;50.168;8.568;2023-02-15T03:46:03;60.97;;;33.70;;
25846;SDS011;13676;50.168;8.568;2023-02-15T03:48:35;64.35;;;34.05;;
25846;SDS011;13676;50.168;8.568;2023-02-15T03:51:03;59.63;;;31.90;;
25846;SDS011;13676;50.168;8.568;2023-02-15T03:53:49;63.47;;;32.90;;
25846;SDS011;13676;50.168;8.568;2023-02-15T03:56:15;56.17;;;32.85;;
25846;SDS011;13676;50.168;8.568;2023-02-15T03:58:41;59.33;;;32.03;;
25846;SDS011;13676;50.168;8.568;2023-02-15T04:01:26;58.33;;;32.25;;
25846;SDS011;13676;50.168;8.568;2023-02-15T04:04:37;58.40;;;31.80;;
25846;SDS011;13676;50.168;8.568;2023-02-15T04:07:08;57.05;;;32.95;;
25846;SDS011;13676;50.168;8.568;2023-02-15T04:09:33;60.33;;;33.30;;
25846;SDS011;13676;50.168;8.568;2023-02-15T04:12:17;60.10;;;32.15;;
25846;SDS011;13676;50.168;8.568;2023-02-15T04:14:42;71.78;;;35.80;;
25846;SDS011;13676;50.168;8.568;2023-02-15T04:17:26;59.22;;;32.47;;
25846;SDS011;13676;50.168;8.568;2023-02-15T04:19:52;58.00;;;31.52;;
25846;SDS011;13676;50.168;8.568;2023-02-15T04:22:36;62.38;;;31.77;;
25846;SDS011;13676;50.168;8.568;2023-02-15T04:25:20;52.85;;;30.13;;
25846;SDS011;13676;50.168;8.568;2023-02-15T04:27:47;52.03;;;30.45;;
25846;SDS011;13676;50.168;8.568;2023-02-15T04:30:15;54.65;;;29.05;;
25846;SDS011;13676;50.168;8.568;2023-02-15T04:32:41;56.92;;;30.45;;
25846;SDS011;13676;50.168;8.568;2023-02-15T04:35:07;64.30;;;32.95;;
25846;SDS011;13676;50.168;8.568;2023-02-15T04:37:32;57.20;;;31.13;;
25846;SDS011;13676;50.168;8.568;2023-02-15T04:39:58;63.25;;;34.58;;
25846;SDS011;13676;50.168;8.568;2023-02-15T04:42:24;67.70;;;35.17;;
25846;SDS011;13676;50.168;8.568;2023-02-15T04:44:50;56.73;;;30.87;;
25846;SDS011;13676;50.168;8.568;2023-02-15T04:47:15;60.20;;;32.53;;
25846;SDS011;13676;50.168;8.568;2023-02-15T04:49:41;67.30;;;35.33;;
25846;SDS011;13676;50.168;8.568;2023-02-15T04:52:06;71.70;;;38.17;;
25846;SDS011;13676;50.168;8.568;2023-02-15T04:54:32;57.53;;;33.55;;
25846;SDS011;13676;50.168;8.568;2023-02-15T04:56:57;63.85;;;35.05;;
25846;SDS011;13676;50.168;8.568;2023-02-15T04:59:22;64.57;;;32.95;;
25846;SDS011;13676;50.168;8.568;2023-02-15T05:01:48;64.90;;;35.40;;
25846;SDS011;13676;50.168;8.568;2023-02-15T05:04:13;65.93;;;34.92;;
25846;SDS011;13676;50.168;8.568;2023-02-15T05:06:38;76.22;;;40.72;;
25846;SDS011;13676;50.168;8.568;2023-02-15T05:09:04;76.45;;;40.28;;
25846;SDS011;13676;50.168;8.568;2023-02-15T05:11:29;78.40;;;39.03;;
25846;SDS011;13676;50.168;8.568;2023-02-15T05:13:54;67.55;;;37.20;;
25846;SDS011;13676;50.168;8.568;2023-02-15T05:16:20;63.55;;;35.83;;
25846;SDS011;13676;50.168;8.568;2023-02-15T05:18:45;61.15;;;34.67;;
25846;SDS011;13676;50.168;8.568;2023-02-15T05:21:10;63.70;;;34.05;;
25846;SDS011;13676;50.168;8.568;2023-02-15T05:23:36;64.90;;;34.10;;
25846;SDS011;13676;50.168;8.568;2023-02-15T05:26:01;74.20;;;36.97;;
25846;SDS011;13676;50.168;8.568;2023-02-15T05:28:46;65.20;;;35.65;;
25846;SDS011;13676;50.168;8.568;2023-02-15T05:33:38;62.10;;;32.55;;
25846;SDS011;13676;50.168;8.568;2023-02-15T05:36:04;69.78;;;37.80;;
25846;SDS011;13676;50.168;8.568;2023-02-15T05:38:30;75.10;;;37.45;;
25846;SDS011;13676;50.168;8.568;2023-02-15T05:40:55;78.13;;;38.67;;
25846;SDS011;13676;50.168;8.568;2023-02-15T05:43:21;69.85;;;37.20;;
25846;SDS011;13676;50.168;8.568;2023-02-15T05:45:47;76.30;;;38.92;;
25846;SDS011;13676;50.168;8.568;2023-02-15T05:48:13;66.90;;;36.10;;
25846;SDS011;13676;50.168;8.568;2023-02-15T05:50:39;64.07;;;33.70;;
25846;SDS011;13676;50.168;8.568;2023-02-15T05:53:04;75.80;;;38.42;;
25846;SDS011;13676;50.168;8.568;2023-02-15T05:55:29;73.15;;;39.70;;
25846;SDS011;13676;50.168;8.568;2023-02-15T05:57:55;76.43;;;38.60;;
25846;SDS011;13676;50.168;8.568;2023-02-15T06:00:20;70.82;;;35.10;;
25846;SDS011;13676;50.168;8.568;2023-02-15T06:02:45;83.22;;;42.67;;
25846;SDS011;13676;50.168;8.568;2023-02-15T06:05:11;72.13;;;37.70;;
25846;SDS011;13676;50.168;8.568;2023-02-15T06:07:36;72.05;;;36.58;;
25846;SDS011;13676;50.168;8.568;2023-02-15T06:10:02;65.07;;;34.10;;
25846;SDS011;13676;50.168;8.568;2023-02-15T06:12:28;64.75;;;31.15;;
25846;SDS011;13676;50.168;8.568;2023-02-15T06:14:53;72.93;;;33.17;;
25846;SDS011;13676;50.168;8.568;2023-02-15T06:17:19;71.55;;;33.58;;
25846;SDS011;13676;50.168;8.568;2023-02-15T06:19:44;65.82;;;33.83;;
25846;SDS011;13676;50.168;8.568;2023-02-15T06:22:09;65.35;;;33.67;;
25846;SDS011;13676;50.168;8.568;2023-02-15T06:24:35;63.40;;;32.92;;
25846;SDS011;13676;50.168;8.568;2023-02-15T06:27:00;70.68;;;34.30;;
25846;SDS011;13676;50.168;8.568;2023-02-15T06:29:26;71.35;;;33.83;;
25846;SDS011;13676;50.168;8.568;2023-02-15T06:31:51;73.38;;;34.78;;
25846;SDS011;13676;50.168;8.568;2023-02-15T06:34:16;67.40;;;31.83;;
25846;SDS011;13676;50.168;8.568;2023-02-15T06:36:42;72.95;;;33.15;;
25846;SDS011;13676;50.168;8.568;2023-02-15T06:39:07;89.70;;;34.72;;
25846;SDS011;13676;50.168;8.568;2023-02-15T06:41:33;59.20;;;30.95;;
25846;SDS011;13676;50.168;8.568;2023-02-15T06:43:58;60.10;;;29.85;;
25846;SDS011;13676;50.168;8.568;2023-02-15T06:46:24;64.57;;;32.50;;
25846;SDS011;13676;50.168;8.568;2023-02-15T06:48:49;68.03;;;32.05;;
25846;SDS011;13676;50.168;8.568;2023-02-15T06:51:14;67.47;;;31.88;;
25846;SDS011;13676;50.168;8.568;2023-02-15T06:53:40;76.72;;;34.25;;
25846;SDS011;13676;50.168;8.568;2023-02-15T06:56:08;61.35;;;29.25;;
25846;SDS011;13676;50.168;8.568;2023-02-15T06:58:37;63.80;;;30.60;;
25846;SDS011;13676;50.168;8.568;2023-02-15T07:01:04;72.03;;;34.45;;
25846;SDS011;13676;50.168;8.568;2023-02-15T07:03:30;75.20;;;35.58;;
25846;SDS011;13676;50.168;8.568;2023-02-15T07:05:56;71.18;;;33.03;;
25846;SDS011;13676;50.168;8.568;2023-02-15T07:08:22;94.23;;;38.63;;
25846;SDS011;13676;50.168;8.568;2023-02-15T07:10:51;83.85;;;38.50;;
25846;SDS011;13676;50.168;8.568;2023-02-15T07:13:18;74.20;;;36.90;;
25846;SDS011;13676;50.168;8.568;2023-02-15T07:15:44;87.63;;;39.28;;
25846;SDS011;13676;50.168;8.568;2023-02-15T07:18:09;67.75;;;35.50;;
25846;SDS011;13676;50.168;8.568;2023-02-15T07:20:35;68.68;;;34.10;;
25846;SDS011;13676;50.168;8.568;2023-02-15T07:23:01;84.65;;;36.22;;
25846;SDS011;13676;50.168;8.568;2023-02-15T07:25:27;74.22;;;36.53;;
25846;SDS011;13676;50.168;8.568;2023-02-15T07:28:02;101.72;;;38.25;;
25846;SDS011;13676;50.168;8.568;2023-02-15T07:30:29;90.57;;;39.78;;
25846;SDS011;13676;50.168;8.568;2023-02-15T07:32:55;83.95;;;41.35;;
25846;SDS011;13676;50.168;8.568;2023-02-15T07:35:45;94.45;;;41.35;;
25846;SDS011;13676;50.168;8.568;2023-02-15T07:38:14;72.40;;;37.03;;
25846;SDS011;13676;50.168;8.568;2023-02-15T07:40:40;81.43;;;39.22;;
25846;SDS011;13676;50.168;8.568;2023-02-15T07:43:05;84.82;;;39.97;;
25846;SDS011;13676;50.168;8.568;2023-02-15T07:45:31;73.70;;;39.30;;
25846;SDS011;13676;50.168;8.568;2023-02-15T07:47:56;82.03;;;36.03;;
25846;SDS011;13676;50.168;8.568;2023-02-15T07:50:22;83.20;;;35.35;;
25846;SDS011;13676;50.168;8.568;2023-02-15T07:52:47;79.35;;;38.40;;
25846;SDS011;13676;50.168;8.568;2023-02-15T07:55:12;75.25;;;36.78;;
25846;SDS011;13676;50.168;8.568;2023-02-15T07:57:42;73.03;;;33.75;;
25846;SDS011;13676;50.168;8.568;2023-02-15T08:00:09;64.75;;;34.67;;
25846;SDS011;13676;50.168;8.568;2023-02-15T08:02:36;73.80;;;32.75;;
25846;SDS011;13676;50.168;8.568;2023-02-15T08:05:02;67.70;;;31.77;;
25846;SDS011;13676;50.168;8.568;2023-02-15T08:07:27;83.40;;;31.83;;
25846;SDS011;13676;50.168;8.568;2023-02-15T08:09:53;60.45;;;28.15;;
25846;SDS011;13676;50.168;8.568;2023-02-15T08:12:18;79.13;;;30.00;;
25846;SDS011;13676;50.168;8.568;2023-02-15T08:14:44;42.35;;;25.67;;
25846;SDS011;13676;50.168;8.568;2023-02-15T08:17:09;43.05;;;25.17;;
25846;SDS011;13676;50.168;8.568;2023-02-15T08:19:35;47.72;;;27.83;;
25846;SDS011;13676;50.168;8.568;2023-02-15T08:22:04;52.63;;;29.42;;
25846;SDS011;13676;50.168;8.568;2023-02-15T08:24:32;44.80;;;26.58;;
25846;SDS011;13676;50.168;8.568;2023-02-15T08:27:05;54.58;;;27.27;;
25846;SDS011;13676;50.168;8.568;2023-02-15T08:29:31;51.22;;;25.23;;
25846;SDS011;13676;50.168;8.568;2023-02-15T08:31:58;44.60;;;24.10;;
25846;SDS011;13676;50.168;8.568;2023-02-15T08:34:27;41.47;;;25.08;;
25846;SDS011;13676;50.168;8.568;2023-02-15T08:36:57;36.70;;;22.10;;
25846;SDS011;13676;50.168;8.568;2023-02-15T08:39:22;39.13;;;24.00;;
25846;SDS011;13676;50.168;8.568;2023-02-15T08:41:48;46.67;;;24.90;;
25846;SDS011;13676;50.168;8.568;2023-02-15T08:44:14;39.42;;;23.38;;
25846;SDS011;13676;50.168;8.568;2023-02-15T08:46:41;50.30;;;26.23;;
25846;SDS011;13676;50.168;8.568;2023-02-15T08:49:12;39.77;;;23.20;;
25846;SDS011;13676;50.168;8.568;2023-02-15T08:51:40;45.72;;;23.63;;
25846;SDS011;13676;50.168;8.568;2023-02-15T08:54:09;44.47;;;26.80;;
25846;SDS011;13676;50.168;8.568;2023-02-15T08:56:37;73.22;;;28.20;;
25846;SDS011;13676;50.168;8.568;2023-02-15T08:59:04;51.03;;;25.13;;
25846;SDS011;13676;50.168;8.568;2023-02-15T09:01:31;40.03;;;24.15;;
25846;SDS011;13676;50.168;8.568;2023-02-15T09:03:58;44.33;;;26.02;;
25846;SDS011;13676;50.168;8.568;2023-02-15T09:06:25;39.78;;;23.48;;
25846;SDS011;13676;50.168;8.568;2023-02-15T09:08:51;38.97;;;24.50;;
25846;SDS011;13676;50.168;8.568;2023-02-15T09:11:21;40.05;;;23.67;;
25846;SDS011;13676;50.168;8.568;2023-02-15T09:13:52;73.85;;;25.58;;
25846;SDS011;13676;50.168;8.568;2023-02-15T09:16:18;35.65;;;21.75;;
25846;SDS011;13676;50.168;8.568;2023-02-15T09:18:44;47.70;;;21.13;;
25846;SDS011;13676;50.168;8.568;2023-02-15T09:21:10;35.85;;;22.40;;
25846;SDS011;13676;50.168;8.568;2023-02-15T09:23:43;42.90;;;22.38;;
25846;SDS011;13676;50.168;8.568;2023-02-15T09:26:11;36.05;;;21.63;;
25846;SDS011;13676;50.168;8.568;2023-02-15T09:28:45;44.10;;;23.67;;
25846;SDS011;13676;50.168;8.568;2023-02-15T09:31:14;43.50;;;23.58;;
25846;SDS011;13676;50.168;8.568;2023-02-15T09:33:41;40.70;;;23.17;;
25846;SDS011;13676;50.168;8.568;2023-02-15T09:38:42;43.20;;;24.65;;
25846;SDS011;13676;50.168;8.568;2023-02-15T09:43:46;44.92;;;23.30;;
25846;SDS011;13676;50.168;8.568;2023-02-15T09:46:27;38.53;;;23.15;;
25846;SDS011;13676;50.168;8.568;2023-02-15T09:49:06;42.80;;;27.60;;
25846;SDS011;13676;50.168;8.568;2023-02-15T09:51:50;40.72;;;24.75;;
25846;SDS011;13676;50.168;8.568;2023-02-15T09:57:14;39.45;;;23.92;;
25846;SDS011;13676;50.168;8.568;2023-02-15T10:14:10;38.22;;;23.45;;
25846;SDS011;13676;50.168;8.568;2023-02-15T10:19:44;42.20;;;25.85;;
25846;SDS011;13676;50.168;8.568;2023-02-15T10:25:15;45.00;;;28.15;;
25846;SDS011;13676;50.168;8.568;2023-02-15T10:27:47;48.22;;;28.30;;
25846;SDS011;13676;50.168;8.568;2023-02-15T10:30:27;56.10;;;32.20;;
25846;SDS011;13676;50.168;8.568;2023-02-15T10:41:32;52.75;;;31.33;;
25846;SDS011;13676;50.168;8.568;2023-02-15T10:55:13;48.47;;;27.77;;
25846;SDS011;13676;50.168;8.568;2023-02-15T11:08:19;41.95;;;23.60;;
25846;SDS011;13676;50.168;8.568;2023-02-15T11:10:50;41.88;;;23.45;;
25846;SDS011;13676;50.168;8.568;2023-02-15T11:13:19;39.58;;;22.02;;
25846;SDS011;13676;50.168;8.568;2023-02-15T11:15:48;38.65;;;22.95;;
25846;SDS011;13676;50.168;8.568;2023-02-15T11:18:21;33.15;;;19.70;;
25846;SDS011;13676;50.168;8.568;2023-02-15T11:21:07;41.63;;;21.85;;
25846;SDS011;13676;50.168;8.568;2023-02-15T11:23:40;36.50;;;19.75;;
25846;SDS011;13676;50.168;8.568;2023-02-15T11:26:19;41.38;;;23.85;;
25846;SDS011;13676;50.168;8.568;2023-02-15T11:28:59;51.08;;;26.00;;
25846;SDS011;13676;50.168;8.568;2023-02-15T11:31:42;52.17;;;25.35;;
25846;SDS011;13676;50.168;8.568;2023-02-15T11:34:12;48.13;;;26.55;;
25846;SDS011;13676;50.168;8.568;2023-02-15T11:36:42;51.58;;;25.45;;
25846;SDS011;13676;50.168;8.568;2023-02-15T11:39:12;41.30;;;23.13;;
25846;SDS011;13676;50.168;8.568;2023-02-15T11:41:50;46.08;;;23.75;;
25846;SDS011;13676;50.168;8.568;2023-02-15T11:44:23;44.90;;;23.13;;
25846;SDS011;13676;50.168;8.568;2023-02-15T11:46:51;43.95;;;25.00;;
25846;SDS011;13676;50.168;8.568;2023-02-15T11:49:50;48.05;;;24.30;;
25846;SDS011;13676;50.168;8.568;2023-02-15T11:52:10;36.17;;;21.38;;
25846;SDS011;13676;50.168;8.568;2023-02-15T11:54:39;43.45;;;23.40;;
25846;SDS011;13676;50.168;8.568;2023-02-15T12:00:23;44.92;;;23.35;;
25846;SDS011;13676;50.168;8.568;2023-02-15T12:03:01;42.85;;;22.65;;
25846;SDS011;13676;50.168;8.568;2023-02-15T12:08:12;41.90;;;22.90;;
25846;SDS011;13676;50.168;8.568;2023-02-15T12:10:51;51.95;;;27.70;;
25846;SDS011;13676;50.168;8.568;2023-02-15T12:13:22;44.65;;;24.20;;
25846;SDS011;13676;50.168;8.568;2023-02-15T12:15:49;50.78;;;27.13;;
25846;SDS011;13676;50.168;8.568;2023-02-15T12:18:31;50.25;;;27.42;;
25846;SDS011;13676;50.168;8.568;2023-02-15T12:21:00;45.85;;;25.05;;
25846;SDS011;13676;50.168;8.568;2023-02-15T12:23:29;51.67;;;28.15;;
25846;SDS011;13676;50.168;8.568;2023-02-15T12:25:55;50.17;;;26.67;;
25846;SDS011;13676;50.168;8.568;2023-02-15T12:28:26;48.50;;;26.80;;
25846;SDS011;13676;50.168;8.568;2023-02-15T12:30:57;56.30;;;29.38;;
25846;SDS011;13676;50.168;8.568;2023-02-15T12:36:22;56.67;;;30.25;;
25846;SDS011;13676;50.168;8.568;2023-02-15T12:41:34;67.75;;;35.90;;
25846;SDS011;13676;50.168;8.568;2023-02-15T12:44:16;59.70;;;32.63;;
25846;SDS011;13676;50.168;8.568;2023-02-15T12:47:10;53.15;;;30.30;;
25846;SDS011;13676;50.168;8.568;2023-02-15T12:49:42;50.83;;;28.95;;
25846;SDS011;13676;50.168;8.568;2023-02-15T12:54:42;56.78;;;31.45;;
25846;SDS011;13676;50.168;8.568;2023-02-15T12:57:41;56.17;;;30.25;;
25846;SDS011;13676;50.168;8.568;2023-02-15T13:00:23;61.90;;;31.77;;
25846;SDS011;13676;50.168;8.568;2023-02-15T13:02:51;67.65;;;34.35;;
25846;SDS011;13676;50.168;8.568;2023-02-15T13:07:56;64.15;;;34.90;;
25846;SDS011;13676;50.168;8.568;2023-02-15T13:12:56;62.60;;;35.47;;
25846;SDS011;13676;50.168;8.568;2023-02-15T13:15:23;63.53;;;33.60;;
25846;SDS011;13676;50.168;8.568;2023-02-15T13:17:50;56.33;;;30.60;;
25846;SDS011;13676;50.168;8.568;2023-02-15T13:22:44;61.00;;;36.42;;
25846;SDS011;13676;50.168;8.568;2023-02-15T13:25:13;70.90;;;38.38;;
25846;SDS011;13676;50.168;8.568;2023-02-15T13:27:42;67.95;;;36.60;;
25846;SDS011;13676;50.168;8.568;2023-02-15T13:32:52;63.42;;;34.13;;
25846;SDS011;13676;50.168;8.568;2023-02-15T13:35:20;61.33;;;33.35;;
25846;SDS011;13676;50.168;8.568;2023-02-15T13:48:39;69.68;;;38.50;;
25846;SDS011;13676;50.168;8.568;2023-02-15T13:59:38;60.67;;;35.95;;
25846;SDS011;13676;50.168;8.568;2023-02-15T14:02:36;61.10;;;35.00;;
25846;SDS011;13676;50.168;8.568;2023-02-15T14:32:24;57.25;;;31.85;;
25846;SDS011;13676;50.168;8.568;2023-02-15T14:35:02;56.97;;;29.80;;
25846;SDS011;13676;50.168;8.568;2023-02-15T14:40:18;66.75;;;35.85;;
25846;SDS011;13676;50.168;8.568;2023-02-15T14:46:34;57.00;;;30.73;;
25846;SDS011;13676;50.168;8.568;2023-02-15T14:49:25;59.70;;;31.00;;
25846;SDS011;13676;50.168;8.568;2023-02-15T14:51:55;58.55;;;32.55;;
25846;SDS011;13676;50.168;8.568;2023-02-15T15:04:34;60.28;;;32.55;;
25846;SDS011;13676;50.168;8.568;2023-02-15T15:15:12;60.90;;;33.88;;
25846;SDS011;13676;50.168;8.568;2023-02-15T15:25:56;63.78;;;34.38;;
25846;SDS011;13676;50.168;8.568;2023-02-15T15:49:57;77.43;;;40.42;;
25846;SDS011;13676;50.168;8.568;2023-02-15T15:52:23;76.57;;;39.38;;
25846;SDS011;13676;50.168;8.568;2023-02-15T15:54:51;81.30;;;40.42;;
25846;SDS011;13676;50.168;8.568;2023-02-15T15:57:39;72.22;;;39.15;;
25846;SDS011;13676;50.168;8.568;2023-02-15T16:00:22;64.57;;;36.58;;
25846;SDS011;13676;50.168;8.568;2023-02-15T16:03:12;76.57;;;40.28;;
25846;SDS011;13676;50.168;8.568;2023-02-15T16:05:39;75.47;;;41.80;;
25846;SDS011;13676;50.168;8.568;2023-02-15T16:08:05;76.20;;;40.17;;
25846;SDS011;13676;50.168;8.568;2023-02-15T16:10:30;73.95;;;38.72;;
25846;SDS011;13676;50.168;8.568;2023-02-15T16:12:57;72.60;;;38.53;;
25846;SDS011;13676;50.168;8.568;2023-02-15T16:15:24;66.55;;;36.90;;
25846;SDS011;13676;50.168;8.568;2023-02-15T16:17:53;63.85;;;35.25;;
25846;SDS011;13676;50.168;8.568;2023-02-15T16:20:25;77.70;;;44.08;;
25846;SDS011;13676;50.168;8.568;2023-02-15T16:26:02;89.40;;;49.88;;
25846;SDS011;13676;50.168;8.568;2023-02-15T16:28:32;94.32;;;50.97;;
25846;SDS011;13676;50.168;8.568;2023-02-15T16:31:11;80.10;;;44.13;;
25846;SDS011;13676;50.168;8.568;2023-02-15T16:33:39;83.88;;;47.85;;
25846;SDS011;13676;50.168;8.568;2023-02-15T16:36:05;95.93;;;52.90;;
25846;SDS011;13676;50.168;8.568;2023-02-15T16:41:10;94.75;;;50.42;;
25846;SDS011;13676;50.168;8.568;2023-02-15T16:43:36;87.80;;;50.00;;
25846;SDS011;13676;50.168;8.568;2023-02-15T16:48:39;82.82;;;46.80;;
25846;SDS011;13676;50.168;8.568;2023-02-15T16:51:07;89.80;;;46.83;;
25846;SDS011;13676;50.168;8.568;2023-02-15T16:53:33;81.30;;;45.03;;
25846;SDS011;13676;50.168;8.568;2023-02-15T16:56:03;76.07;;;44.20;;
25846;SDS011;13676;50.168;8.568;2023-02-15T16:58:36;74.03;;;41.67;;
25846;SDS011;13676;50.168;8.568;2023-02-15T17:01:03;74.22;;;43.38;;
25846;SDS011;13676;50.168;8.568;2023-02-15T17:03:31;76.53;;;42.65;;
25846;SDS011;13676;50.168;8.568;2023-02-15T17:05:57;64.20;;;39.60;;
25846;SDS011;13676;50.168;8.568;2023-02-15T17:08:31;74.30;;;40.35;;
25846;SDS011;13676;50.168;8.568;2023-02-15T17:13:23;68.57;;;40.40;;
25846;SDS011;13676;50.168;8.568;2023-02-15T17:18:24;66.35;;;38.80;;
25846;SDS011;13676;50.168;8.568;2023-02-15T17:20:53;70.97;;;42.45;;
25846;SDS011;13676;50.168;8.568;2023-02-15T17:23:35;75.95;;;43.13;;
25846;SDS011;13676;50.168;8.568;2023-02-15T17:28:48;75.18;;;40.72;;
25846;SDS011;13676;50.168;8.568;2023-02-15T17:31:16;66.53;;;39.83;;
25846;SDS011;13676;50.168;8.568;2023-02-15T17:33:42;58.20;;;35.65;;
25846;SDS011;13676;50.168;8.568;2023-02-15T17:36:16;59.53;;;35.80;;
25846;SDS011;13676;50.168;8.568;2023-02-15T17:41:22;63.10;;;37.58;;
25846;SDS011;13676;50.168;8.568;2023-02-15T17:43:47;67.13;;;38.08;;
25846;SDS011;13676;50.168;8.568;2023-02-15T17:46:13;75.93;;;43.65;;
25846;SDS011;13676;50.168;8.568;2023-02-15T17:51:07;77.63;;;43.25;;
25846;SDS011;13676;50.168;8.568;2023-02-15T17:53:36;67.55;;;39.28;;
25846;SDS011;13676;50.168;8.568;2023-02-15T17:56:02;67.32;;;39.08;;
25846;SDS011;13676;50.168;8.568;2023-02-15T17:58:34;69.00;;;39.03;;
25846;SDS011;13676;50.168;8.568;2023-02-15T18:01:01;67.15;;;37.63;;
25846;SDS011;13676;50.168;8.568;2023-02-15T18:03:49;79.20;;;37.60;;
25846;SDS011;13676;50.168;8.568;2023-02-15T18:06:34;66.35;;;36.80;;
25846;SDS011;13676;50.168;8.568;2023-02-15T18:09:21;67.57;;;40.10;;
25846;SDS011;13676;50.168;8.568;2023-02-15T18:12:14;67.82;;;39.42;;
25846;SDS011;13676;50.168;8.568;2023-02-15T18:14:42;59.40;;;35.92;;
25846;SDS011;13676;50.168;8.568;2023-02-15T18:17:09;62.75;;;36.33;;
25846;SDS011;13676;50.168;8.568;2023-02-15T18:19:36;53.63;;;35.20;;
25846;SDS011;13676;50.168;8.568;2023-02-15T18:22:04;61.17;;;37.22;;
25846;SDS011;13676;50.168;8.568;2023-02-15T18:24:33;61.38;;;38.80;;
25846;SDS011;13676;50.168;8.568;2023-02-15T18:26:59;62.65;;;36.17;;
25846;SDS011;13676;50.168;8.568;2023-02-15T18:29:25;61.95;;;37.53;;
25846;SDS011;13676;50.168;8.568;2023-02-15T18:31:51;62.05;;;34.95;;
25846;SDS011;13676;50.168;8.568;2023-02-15T18:34:22;53.90;;;32.95;;
25846;SDS011;13676;50.168;8.568;2023-02-15T18:36:51;62.38;;;37.03;;
25846;SDS011;13676;50.168;8.568;2023-02-15T18:39:36;61.58;;;36.25;;